sensor_id;sensor_type;location;lat;lon;timestamp;temperature;humidity
47576;DHT22;33304;52.456;13.328;2024-01-15T00:01:53;2.40;94.20
47576;DHT22;33304;52.456;13.328;2024-01-15T00:04:20;2.30;98.80
47576;DHT22;33304;52.456;13.328;2024-01-15T00:06:49;2.30;99.90
47576;DHT22;33304;52.456;13.328;2024-01-15T00:09:16;2.20;99.90
47576;DHT22;33304;52.456;13.328;2024-01-15T00:11:43;2.20;99.90
47576;DHT22;33304;52.456;13.328;2024-01-15T00:14:12;2.20;99.90
47576;DHT22;33304;52.456;13.328;2024-01-15T00:16:40;2.10;99.90
47576;DHT22;33304;52.456;13.328;2024-01-15T00:19:07;2.20;99.90
47576;DHT22;33304;52.456;13.328;2024-01-15T00:21:34;2.20;99.90
47576;DHT22;33304;52.456;13.328;2024-01-15T00:24:01;2.20;99.90
47576;DHT22;33304;52.456;13.328;2024-01-15T00:26:28;2.20;99.90
47576;DHT22;33304;52.456;13.328;2024-01-15T00:28:55;2.30;99.90
47576;DHT22;33304;52.456;13.328;2024-01-15T00:31:24;2.20;99.90
47576;DHT22;33304;52.456;13.328;2024-01-15T00:33:51;2.20;99.90
47576;DHT22;33304;52.456;13.328;2024-01-15T00:36:18;2.30;99.90
47576;DHT22;33304;52.456;13.328;2024-01-15T00:38:45;2.30;99.90
47576;DHT22;33304;52.456;13.328;2024-01-15T00:41:13;2.40;99.90
47576;DHT22;33304;52.456;13.328;2024-01-15T00:43:40;2.40;97.90
47576;DHT22;33304;52.456;13.328;2024-01-15T00:46:07;2.40;98.00
47576;DHT22;33304;52.456;13.328;2024-01-15T00:48:35;2.40;95.40
47576;DHT22;33304;52.456;13.328;2024-01-15T00:51:04;2.40;95.40
47576;DHT22;33304;52.456;13.328;2024-01-15T00:53:31;2.40;92.90
47576;DHT22;33304;52.456;13.328;2024-01-15T00:55:58;2.30;93.00
47576;DHT22;33304;52.456;13.328;2024-01-15T00:58:26;2.40;89.30
47576;DHT22;33304;52.456;13.328;2024-01-15T01:00:53;2.40;87.30
47576;DHT22;33304;52.456;13.328;2024-01-15T01:03:20;2.40;84.90
47576;DHT22;33304;52.456;13.328;2024-01-15T01:05:49;2.40;86.30
47576;DHT22;33304;52.456;13.328;2024-01-15T01:08:16;2.40;84.80
47576;DHT22;33304;52.456;13.328;2024-01-15T01:10:43;2.40;85.90
47576;DHT22;33304;52.456;13.328;2024-01-15T01:13:10;2.40;82.80
47576;DHT22;33304;52.456;13.328;2024-01-15T01:15:37;2.40;84.70
47576;DHT22;33304;52.456;13.328;2024-01-15T01:18:05;2.40;88.00
47576;DHT22;33304;52.456;13.328;2024-01-15T01:20:32;2.30;90.30
47576;DHT22;33304;52.456;13.328;2024-01-15T01:23:00;2.20;92.40
47576;DHT22;33304;52.456;13.328;2024-01-15T01:25:27;2.20;93.60
47576;DHT22;33304;52.456;13.328;2024-01-15T01:27:54;2.20;98.40
47576;DHT22;33304;52.456;13.328;2024-01-15T01:30:21;2.10;98.80
47576;DHT22;33304;52.456;13.328;2024-01-15T01:32:48;2.10;99.90
47576;DHT22;33304;52.456;13.328;2024-01-15T01:35:15;2.00;99.90
47576;DHT22;33304;52.456;13.328;2024-01-15T01:37:42;2.00;99.90
47576;DHT22;33304;52.456;13.328;2024-01-15T01:40:11;1.90;99.90
47576;DHT22;33304;52.456;13.328;2024-01-15T01:42:38;1.80;99.90
47576;DHT22;33304;52.456;13.328;2024-01-15T01:45:05;1.80;99.90
47576;DHT22;33304;52.456;13.328;2024-01-15T01:47:32;1.80;99.90
47576;DHT22;33304;52.456;13.328;2024-01-15T01:49:59;1.80;99.90
47576;DHT22;33304;52.456;13.328;2024-01-15T01:52:27;1.70;99.90
47576;DHT22;33304;52.456;13.328;2024-01-15T01:54:54;1.80;99.90
47576;DHT22;33304;52.456;13.328;2024-01-15T01:57:23;1.80;99.90
47576;DHT22;33304;52.456;13.328;2024-01-15T01:59:50;1.80;99.90
47576;DHT22;33304;52.456;13.328;2024-01-15T02:02:18;1.70;99.90
47576;DHT22;33304;52.456;13.328;2024-01-15T02:04:47;1.80;99.90
47576;DHT22;33304;52.456;13.328;2024-01-15T02:07:14;1.80;99.90
47576;DHT22;33304;52.456;13.328;2024-01-15T02:09:44;1.80;99.90
47576;DHT22;33304;52.456;13.328;2024-01-15T02:12:11;1.80;99.90
47576;DHT22;33304;52.456;13.328;2024-01-15T02:14:40;1.90;99.90
47576;DHT22;33304;52.456;13.328;2024-01-15T02:17:07;1.90;99.90
47576;DHT22;33304;52.456;13.328;2024-01-15T02:19:34;2.00;99.90
47576;DHT22;33304;52.456;13.328;2024-01-15T02:22:01;1.90;99.90
47576;DHT22;33304;52.456;13.328;2024-01-15T02:24:30;1.90;99.90
47576;DHT22;33304;52.456;13.328;2024-01-15T02:26:57;1.90;99.90
47576;DHT22;33304;52.456;13.328;2024-01-15T02:29:24;2.10;99.90
47576;DHT22;33304;52.456;13.328;2024-01-15T02:31:51;1.90;99.90
47576;DHT22;33304;52.456;13.328;2024-01-15T02:34:18;2.00;99.90
47576;DHT22;33304;52.456;13.328;2024-01-15T02:36:45;2.00;98.20
47576;DHT22;33304;52.456;13.328;2024-01-15T02:39:12;1.90;95.90
47576;DHT22;33304;52.456;13.328;2024-01-15T02:41:41;1.90;95.50
47576;DHT22;33304;52.456;13.328;2024-01-15T02:44:08;1.90;96.60
47576;DHT22;33304;52.456;13.328;2024-01-15T02:46:34;1.80;97.00
47576;DHT22;33304;52.456;13.328;2024-01-15T02:49:01;1.90;96.60
47576;DHT22;33304;52.456;13.328;2024-01-15T02:51:28;1.90;93.20
47576;DHT22;33304;52.456;13.328;2024-01-15T02:53:55;2.00;93.90
47576;DHT22;33304;52.456;13.328;2024-01-15T02:56:22;1.90;93.70
47576;DHT22;33304;52.456;13.328;2024-01-15T02:58:51;1.90;94.80
47576;DHT22;33304;52.456;13.328;2024-01-15T03:01:18;1.90;93.80
47576;DHT22;33304;52.456;13.328;2024-01-15T03:03:45;1.90;94.50
47576;DHT22;33304;52.456;13.328;2024-01-15T03:06:12;1.90;93.40
47576;DHT22;33304;52.456;13.328;2024-01-15T03:08:39;2.00;92.40
47576;DHT22;33304;52.456;13.328;2024-01-15T03:11:06;2.00;90.70
47576;DHT22;33304;52.456;13.328;2024-01-15T03:13:35;2.00;88.60
47576;DHT22;33304;52.456;13.328;2024-01-15T03:16:04;1.90;89.00
47576;DHT22;33304;52.456;13.328;2024-01-15T03:18:31;1.90;90.60
47576;DHT22;33304;52.456;13.328;2024-01-15T03:20:59;1.90;85.30
47576;DHT22;33304;52.456;13.328;2024-01-15T03:23:27;1.90;82.50
47576;DHT22;33304;52.456;13.328;2024-01-15T03:25:54;1.90;84.30
47576;DHT22;33304;52.456;13.328;2024-01-15T03:28:21;2.00;79.30
47576;DHT22;33304;52.456;13.328;2024-01-15T03:30:48;2.00;77.70
47576;DHT22;33304;52.456;13.328;2024-01-15T03:33:16;2.00;76.50
47576;DHT22;33304;52.456;13.328;2024-01-15T03:35:43;2.00;75.30
47576;DHT22;33304;52.456;13.328;2024-01-15T03:38:11;2.00;72.70
47576;DHT22;33304;52.456;13.328;2024-01-15T03:40:38;2.10;72.70
47576;DHT22;33304;52.456;13.328;2024-01-15T03:43:05;2.10;71.30
47576;DHT22;33304;52.456;13.328;2024-01-15T03:45:32;2.10;70.20
47576;DHT22;33304;52.456;13.328;2024-01-15T03:47:59;2.10;70.20
47576;DHT22;33304;52.456;13.328;2024-01-15T03:50:27;2.00;67.10
47576;DHT22;33304;52.456;13.328;2024-01-15T03:52:54;2.10;70.20
47576;DHT22;33304;52.456;13.328;2024-01-15T03:55:21;2.10;67.70
47576;DHT22;33304;52.456;13.328;2024-01-15T03:57:48;2.10;64.80
47576;DHT22;33304;52.456;13.328;2024-01-15T04:00:16;2.10;61.60
47576;DHT22;33304;52.456;13.328;2024-01-15T04:02:43;2.10;59.50
47576;DHT22;33304;52.456;13.328;2024-01-15T04:05:10;2.10;59.50
47576;DHT22;33304;52.456;13.328;2024-01-15T04:07:39;2.20;59.60
47576;DHT22;33304;52.456;13.328;2024-01-15T04:10:06;2.20;60.60
47576;DHT22;33304;52.456;13.328;2024-01-15T04:12:33;2.20;59.60
47576;DHT22;33304;52.456;13.328;2024-01-15T04:15:01;2.20;59.60
47576;DHT22;33304;52.456;13.328;2024-01-15T04:17:28;2.20;59.60
47576;DHT22;33304;52.456;13.328;2024-01-15T04:19:55;2.30;57.20
47576;DHT22;33304;52.456;13.328;2024-01-15T04:22:22;2.20;56.30
47576;DHT22;33304;52.456;13.328;2024-01-15T04:24:51;2.20;56.50
47576;DHT22;33304;52.456;13.328;2024-01-15T04:27:18;2.20;55.40
47576;DHT22;33304;52.456;13.328;2024-01-15T04:29:45;2.20;57.40
47576;DHT22;33304;52.456;13.328;2024-01-15T04:32:12;2.20;55.00
47576;DHT22;33304;52.456;13.328;2024-01-15T04:34:39;2.20;54.70
47576;DHT22;33304;52.456;13.328;2024-01-15T04:37:06;2.30;52.80
47576;DHT22;33304;52.456;13.328;2024-01-15T04:39:33;2.30;51.80
47576;DHT22;33304;52.456;13.328;2024-01-15T04:42:02;2.30;51.40
47576;DHT22;33304;52.456;13.328;2024-01-15T04:44:29;2.30;50.40
47576;DHT22;33304;52.456;13.328;2024-01-15T04:46:56;2.30;50.30
47576;DHT22;33304;52.456;13.328;2024-01-15T04:49:23;2.30;48.80
47576;DHT22;33304;52.456;13.328;2024-01-15T04:51:52;2.30;46.60
47576;DHT22;33304;52.456;13.328;2024-01-15T04:54:19;2.30;46.80
47576;DHT22;33304;52.456;13.328;2024-01-15T04:56:46;2.30;46.50
47576;DHT22;33304;52.456;13.328;2024-01-15T04:59:15;2.30;45.70
47576;DHT22;33304;52.456;13.328;2024-01-15T05:01:42;2.30;46.20
47576;DHT22;33304;52.456;13.328;2024-01-15T05:04:09;2.30;44.50
47576;DHT22;33304;52.456;13.328;2024-01-15T05:06:36;2.30;45.60
47576;DHT22;33304;52.456;13.328;2024-01-15T05:09:03;2.40;43.90
47576;DHT22;33304;52.456;13.328;2024-01-15T05:11:30;2.40;48.90
47576;DHT22;33304;52.456;13.328;2024-01-15T05:13:57;2.20;52.90
47576;DHT22;33304;52.456;13.328;2024-01-15T05:16:26;2.10;57.90
47576;DHT22;33304;52.456;13.328;2024-01-15T05:18:53;2.20;59.60
47576;DHT22;33304;52.456;13.328;2024-01-15T05:21:20;2.10;56.90
47576;DHT22;33304;52.456;13.328;2024-01-15T05:23:47;2.20;56.90
47576;DHT22;33304;52.456;13.328;2024-01-15T05:26:14;2.20;58.70
47576;DHT22;33304;52.456;13.328;2024-01-15T05:28:42;2.20;54.20
47576;DHT22;33304;52.456;13.328;2024-01-15T05:31:09;2.30;53.50
47576;DHT22;33304;52.456;13.328;2024-01-15T05:33:38;2.40;50.30
47576;DHT22;33304;52.456;13.328;2024-01-15T05:36:06;2.40;50.40
47576;DHT22;33304;52.456;13.328;2024-01-15T05:38:33;2.50;49.20
47576;DHT22;33304;52.456;13.328;2024-01-15T05:41:00;2.50;49.00
47576;DHT22;33304;52.456;13.328;2024-01-15T05:43:27;2.50;49.00
47576;DHT22;33304;52.456;13.328;2024-01-15T05:45:54;2.50;48.90
47576;DHT22;33304;52.456;13.328;2024-01-15T05:48:22;2.50;46.90
47576;DHT22;33304;52.456;13.328;2024-01-15T05:50:50;2.50;47.60
47576;DHT22;33304;52.456;13.328;2024-01-15T05:53:17;2.50;47.50
47576;DHT22;33304;52.456;13.328;2024-01-15T05:55:44;2.50;46.80
47576;DHT22;33304;52.456;13.328;2024-01-15T05:58:11;2.50;47.40
47576;DHT22;33304;52.456;13.328;2024-01-15T06:00:38;2.50;51.30
47576;DHT22;33304;52.456;13.328;2024-01-15T06:03:05;2.40;54.30
47576;DHT22;33304;52.456;13.328;2024-01-15T06:05:32;2.30;56.20
47576;DHT22;33304;52.456;13.328;2024-01-15T06:08:01;2.30;57.60
47576;DHT22;33304;52.456;13.328;2024-01-15T06:10:28;2.30;56.10
47576;DHT22;33304;52.456;13.328;2024-01-15T06:12:55;2.30;57.90
47576;DHT22;33304;52.456;13.328;2024-01-15T06:15:22;2.40;55.70
47576;DHT22;33304;52.456;13.328;2024-01-15T06:17:49;2.40;54.30
47576;DHT22;33304;52.456;13.328;2024-01-15T06:20:16;2.40;53.40
47576;DHT22;33304;52.456;13.328;2024-01-15T06:22:43;2.40;52.70
47576;DHT22;33304;52.456;13.328;2024-01-15T06:25:12;2.50;49.60
47576;DHT22;33304;52.456;13.328;2024-01-15T06:27:39;2.50;49.00
47576;DHT22;33304;52.456;13.328;2024-01-15T06:30:07;2.50;53.00
47576;DHT22;33304;52.456;13.328;2024-01-15T06:32:34;2.30;58.50
47576;DHT22;33304;52.456;13.328;2024-01-15T06:35:01;2.30;61.50
47576;DHT22;33304;52.456;13.328;2024-01-15T06:37:28;2.30;63.40
47576;DHT22;33304;52.456;13.328;2024-01-15T06:39:55;2.30;63.40
47576;DHT22;33304;52.456;13.328;2024-01-15T06:42:24;2.30;62.30
47576;DHT22;33304;52.456;13.328;2024-01-15T06:44:52;2.30;62.00
47576;DHT22;33304;52.456;13.328;2024-01-15T06:47:19;2.30;60.00
47576;DHT22;33304;52.456;13.328;2024-01-15T06:49:46;2.40;61.00
47576;DHT22;33304;52.456;13.328;2024-01-15T06:52:13;2.40;59.00
47576;DHT22;33304;52.456;13.328;2024-01-15T06:54:40;2.40;57.30
47576;DHT22;33304;52.456;13.328;2024-01-15T06:57:07;2.40;56.90
47576;DHT22;33304;52.456;13.328;2024-01-15T06:59:35;2.50;54.20
47576;DHT22;33304;52.456;13.328;2024-01-15T07:02:03;2.50;52.50
47576;DHT22;33304;52.456;13.328;2024-01-15T07:04:30;2.50;52.80
47576;DHT22;33304;52.456;13.328;2024-01-15T07:06:57;2.50;51.70
47576;DHT22;33304;52.456;13.328;2024-01-15T07:09:24;2.50;49.00
47576;DHT22;33304;52.456;13.328;2024-01-15T07:11:51;2.60;49.10
47576;DHT22;33304;52.456;13.328;2024-01-15T07:14:18;2.60;46.90
47576;DHT22;33304;52.456;13.328;2024-01-15T07:16:46;2.60;44.10
47576;DHT22;33304;52.456;13.328;2024-01-15T07:19:13;2.70;43.60
47576;DHT22;33304;52.456;13.328;2024-01-15T07:21:41;2.60;41.50
47576;DHT22;33304;52.456;13.328;2024-01-15T07:24:08;2.70;42.90
47576;DHT22;33304;52.456;13.328;2024-01-15T07:26:36;2.70;42.50
47576;DHT22;33304;52.456;13.328;2024-01-15T07:29:04;2.80;41.60
47576;DHT22;33304;52.456;13.328;2024-01-15T07:31:31;2.70;39.30
47576;DHT22;33304;52.456;13.328;2024-01-15T07:33:59;2.70;40.20
47576;DHT22;33304;52.456;13.328;2024-01-15T07:36:27;2.70;38.80
47576;DHT22;33304;52.456;13.328;2024-01-15T07:38:54;2.70;39.50
47576;DHT22;33304;52.456;13.328;2024-01-15T07:41:21;2.90;39.60
47576;DHT22;33304;52.456;13.328;2024-01-15T07:43:49;2.90;38.10
47576;DHT22;33304;52.456;13.328;2024-01-15T07:46:16;2.80;38.10
47576;DHT22;33304;52.456;13.328;2024-01-15T07:48:43;2.80;38.00
47576;DHT22;33304;52.456;13.328;2024-01-15T07:51:11;2.80;38.00
47576;DHT22;33304;52.456;13.328;2024-01-15T07:53:39;2.80;38.00
47576;DHT22;33304;52.456;13.328;2024-01-15T07:56:06;2.70;38.00
47576;DHT22;33304;52.456;13.328;2024-01-15T07:58:33;2.80;38.10
47576;DHT22;33304;52.456;13.328;2024-01-15T08:01:00;2.80;38.20
47576;DHT22;33304;52.456;13.328;2024-01-15T08:03:27;2.90;38.80
47576;DHT22;33304;52.456;13.328;2024-01-15T08:05:54;2.80;38.00
47576;DHT22;33304;52.456;13.328;2024-01-15T08:08:24;2.90;38.20
47576;DHT22;33304;52.456;13.328;2024-01-15T08:10:52;2.80;38.00
47576;DHT22;33304;52.456;13.328;2024-01-15T08:13:19;2.80;38.20
47576;DHT22;33304;52.456;13.328;2024-01-15T08:15:46;2.80;39.20
47576;DHT22;33304;52.456;13.328;2024-01-15T08:18:13;2.80;39.90
47576;DHT22;33304;52.456;13.328;2024-01-15T08:20:40;2.80;38.80
47576;DHT22;33304;52.456;13.328;2024-01-15T08:23:08;2.80;38.30
47576;DHT22;33304;52.456;13.328;2024-01-15T08:25:37;2.90;38.10
47576;DHT22;33304;52.456;13.328;2024-01-15T08:28:04;2.80;38.10
47576;DHT22;33304;52.456;13.328;2024-01-15T08:30:31;2.80;40.80
47576;DHT22;33304;52.456;13.328;2024-01-15T08:32:59;2.80;39.80
47576;DHT22;33304;52.456;13.328;2024-01-15T08:35:26;2.80;40.10
47576;DHT22;33304;52.456;13.328;2024-01-15T08:37:53;2.80;39.50
47576;DHT22;33304;52.456;13.328;2024-01-15T08:40:21;2.80;38.00
47576;DHT22;33304;52.456;13.328;2024-01-15T08:42:49;2.80;38.90
47576;DHT22;33304;52.456;13.328;2024-01-15T08:45:16;2.90;38.10
47576;DHT22;33304;52.456;13.328;2024-01-15T08:47:43;2.90;36.10
47576;DHT22;33304;52.456;13.328;2024-01-15T08:50:10;2.90;37.80
47576;DHT22;33304;52.456;13.328;2024-01-15T08:52:37;3.00;36.60
47576;DHT22;33304;52.456;13.328;2024-01-15T08:55:04;3.00;37.10
47576;DHT22;33304;52.456;13.328;2024-01-15T08:57:33;2.90;37.60
47576;DHT22;33304;52.456;13.328;2024-01-15T09:00:02;3.00;38.20
47576;DHT22;33304;52.456;13.328;2024-01-15T09:02:29;3.00;37.60
47576;DHT22;33304;52.456;13.328;2024-01-15T09:04:56;3.10;36.80
47576;DHT22;33304;52.456;13.328;2024-01-15T09:07:24;3.00;37.80
47576;DHT22;33304;52.456;13.328;2024-01-15T09:09:52;2.90;38.20
47576;DHT22;33304;52.456;13.328;2024-01-15T09:12:19;2.90;38.10
47576;DHT22;33304;52.456;13.328;2024-01-15T09:14:48;3.00;38.30
47576;DHT22;33304;52.456;13.328;2024-01-15T09:17:17;3.00;40.10
47576;DHT22;33304;52.456;13.328;2024-01-15T09:19:44;3.00;39.10
47576;DHT22;33304;52.456;13.328;2024-01-15T09:22:12;2.90;40.80
47576;DHT22;33304;52.456;13.328;2024-01-15T09:24:40;3.00;39.20
47576;DHT22;33304;52.456;13.328;2024-01-15T09:27:07;3.00;39.50
47576;DHT22;33304;52.456;13.328;2024-01-15T09:29:34;3.00;40.40
47576;DHT22;33304;52.456;13.328;2024-01-15T09:32:03;3.00;40.10
47576;DHT22;33304;52.456;13.328;2024-01-15T09:34:31;2.90;40.30
47576;DHT22;33304;52.456;13.328;2024-01-15T09:36:58;2.90;40.50
47576;DHT22;33304;52.456;13.328;2024-01-15T09:39:26;2.90;39.80
47576;DHT22;33304;52.456;13.328;2024-01-15T09:41:54;3.00;39.90
47576;DHT22;33304;52.456;13.328;2024-01-15T09:44:21;3.00;41.20
47576;DHT22;33304;52.456;13.328;2024-01-15T09:46:48;3.00;40.40
47576;DHT22;33304;52.456;13.328;2024-01-15T09:49:16;3.00;39.20
47576;DHT22;33304;52.456;13.328;2024-01-15T09:51:44;3.00;39.00
47576;DHT22;33304;52.456;13.328;2024-01-15T09:54:11;3.00;38.20
47576;DHT22;33304;52.456;13.328;2024-01-15T09:56:39;3.00;39.30
47576;DHT22;33304;52.456;13.328;2024-01-15T09:59:06;3.10;39.70
47576;DHT22;33304;52.456;13.328;2024-01-15T10:01:36;3.10;38.30
47576;DHT22;33304;52.456;13.328;2024-01-15T10:04:03;3.10;38.40
47576;DHT22;33304;52.456;13.328;2024-01-15T10:06:30;3.10;38.30
47576;DHT22;33304;52.456;13.328;2024-01-15T10:08:59;3.20;38.40
47576;DHT22;33304;52.456;13.328;2024-01-15T10:11:27;3.20;38.40
47576;DHT22;33304;52.456;13.328;2024-01-15T10:13:54;3.20;38.40
47576;DHT22;33304;52.456;13.328;2024-01-15T10:16:23;3.10;38.30
47576;DHT22;33304;52.456;13.328;2024-01-15T10:18:51;3.10;38.80
47576;DHT22;33304;52.456;13.328;2024-01-15T10:21:18;3.10;38.60
47576;DHT22;33304;52.456;13.328;2024-01-15T10:23:45;3.20;38.40
47576;DHT22;33304;52.456;13.328;2024-01-15T10:26:13;3.10;38.30
47576;DHT22;33304;52.456;13.328;2024-01-15T10:28:40;3.20;38.40
47576;DHT22;33304;52.456;13.328;2024-01-15T10:31:10;3.20;38.40
47576;DHT22;33304;52.456;13.328;2024-01-15T10:33:38;3.20;38.40
47576;DHT22;33304;52.456;13.328;2024-01-15T10:36:09;3.20;37.40
47576;DHT22;33304;52.456;13.328;2024-01-15T10:38:37;3.30;38.10
47576;DHT22;33304;52.456;13.328;2024-01-15T10:41:04;3.20;38.40
47576;DHT22;33304;52.456;13.328;2024-01-15T10:43:32;3.20;36.10
47576;DHT22;33304;52.456;13.328;2024-01-15T10:45:59;3.20;36.20
47576;DHT22;33304;52.456;13.328;2024-01-15T10:48:27;3.30;37.30
47576;DHT22;33304;52.456;13.328;2024-01-15T10:50:57;3.30;36.10
47576;DHT22;33304;52.456;13.328;2024-01-15T10:53:24;3.30;35.20
47576;DHT22;33304;52.456;13.328;2024-01-15T10:55:52;3.30;34.70
47576;DHT22;33304;52.456;13.328;2024-01-15T10:58:20;3.40;34.30
47576;DHT22;33304;52.456;13.328;2024-01-15T11:00:49;3.40;32.80
47576;DHT22;33304;52.456;13.328;2024-01-15T11:03:16;3.50;32.90
47576;DHT22;33304;52.456;13.328;2024-01-15T11:05:45;3.50;32.30
47576;DHT22;33304;52.456;13.328;2024-01-15T11:08:13;3.40;32.20
47576;DHT22;33304;52.456;13.328;2024-01-15T11:10:46;3.50;32.90
47576;DHT22;33304;52.456;13.328;2024-01-15T11:13:15;3.60;31.60
47576;DHT22;33304;52.456;13.328;2024-01-15T11:15:57;3.70;30.40
47576;DHT22;33304;52.456;13.328;2024-01-15T11:18:27;3.60;29.60
47576;DHT22;33304;52.456;13.328;2024-01-15T11:21:24;3.60;30.80
47576;DHT22;33304;52.456;13.328;2024-01-15T11:23:54;3.50;32.90
47576;DHT22;33304;52.456;13.328;2024-01-15T11:26:31;3.30;33.70
47576;DHT22;33304;52.456;13.328;2024-01-15T11:29:00;3.30;36.30
47576;DHT22;33304;52.456;13.328;2024-01-15T11:31:56;3.20;38.30
47576;DHT22;33304;52.456;13.328;2024-01-15T11:34:56;3.20;38.40
47576;DHT22;33304;52.456;13.328;2024-01-15T11:37:29;3.10;40.20
47576;DHT22;33304;52.456;13.328;2024-01-15T11:40:01;3.00;41.90
47576;DHT22;33304;52.456;13.328;2024-01-15T11:42:29;3.10;43.80
47576;DHT22;33304;52.456;13.328;2024-01-15T11:44:57;3.00;43.90
47576;DHT22;33304;52.456;13.328;2024-01-15T11:48:08;3.00;46.60
47576;DHT22;33304;52.456;13.328;2024-01-15T11:50:40;3.00;47.20
47576;DHT22;33304;52.456;13.328;2024-01-15T11:53:15;3.00;49.40
47576;DHT22;33304;52.456;13.328;2024-01-15T11:55:44;3.00;49.60
47576;DHT22;33304;52.456;13.328;2024-01-15T11:58:12;2.90;49.30
47576;DHT22;33304;52.456;13.328;2024-01-15T12:00:40;3.00;52.00
47576;DHT22;33304;52.456;13.328;2024-01-15T12:03:08;3.00;49.40
47576;DHT22;33304;52.456;13.328;2024-01-15T12:05:38;2.90;52.70
47576;DHT22;33304;52.456;13.328;2024-01-15T12:08:05;2.90;53.40
47576;DHT22;33304;52.456;13.328;2024-01-15T12:10:36;2.90;55.10
47576;DHT22;33304;52.456;13.328;2024-01-15T12:13:06;2.90;54.80
47576;DHT22;33304;52.456;13.328;2024-01-15T12:15:36;2.90;53.20
47576;DHT22;33304;52.456;13.328;2024-01-15T12:18:04;2.90;53.50
47576;DHT22;33304;52.456;13.328;2024-01-15T12:20:32;2.90;50.40
47576;DHT22;33304;52.456;13.328;2024-01-15T12:23:01;2.80;51.10
47576;DHT22;33304;52.456;13.328;2024-01-15T12:25:30;2.90;50.60
47576;DHT22;33304;52.456;13.328;2024-01-15T12:28:00;2.90;49.30
47576;DHT22;33304;52.456;13.328;2024-01-15T12:30:27;2.80;47.80
47576;DHT22;33304;52.456;13.328;2024-01-15T12:32:55;2.90;49.40
47576;DHT22;33304;52.456;13.328;2024-01-15T12:35:24;2.90;49.30
47576;DHT22;33304;52.456;13.328;2024-01-15T12:37:52;3.00;49.40
47576;DHT22;33304;52.456;13.328;2024-01-15T12:40:23;2.90;45.90
47576;DHT22;33304;52.456;13.328;2024-01-15T12:42:50;2.90;47.20
47576;DHT22;33304;52.456;13.328;2024-01-15T12:45:17;2.90;47.60
47576;DHT22;33304;52.456;13.328;2024-01-15T12:47:45;2.90;49.90
47576;DHT22;33304;52.456;13.328;2024-01-15T12:50:13;2.70;56.20
47576;DHT22;33304;52.456;13.328;2024-01-15T12:52:41;2.60;65.90
47576;DHT22;33304;52.456;13.328;2024-01-15T12:55:09;2.50;70.10
47576;DHT22;33304;52.456;13.328;2024-01-15T12:57:37;2.60;78.10
47576;DHT22;33304;52.456;13.328;2024-01-15T13:00:05;2.50;82.40
47576;DHT22;33304;52.456;13.328;2024-01-15T13:02:38;2.50;88.10
47576;DHT22;33304;52.456;13.328;2024-01-15T13:05:07;2.50;87.30
47576;DHT22;33304;52.456;13.328;2024-01-15T13:07:35;2.60;89.20
47576;DHT22;33304;52.456;13.328;2024-01-15T13:10:02;2.60;86.20
47576;DHT22;33304;52.456;13.328;2024-01-15T13:12:29;2.70;83.90
47576;DHT22;33304;52.456;13.328;2024-01-15T13:14:58;2.70;82.70
47576;DHT22;33304;52.456;13.328;2024-01-15T13:17:25;2.80;83.30
47576;DHT22;33304;52.456;13.328;2024-01-15T13:19:52;2.80;81.10
47576;DHT22;33304;52.456;13.328;2024-01-15T13:22:19;2.70;79.70
47576;DHT22;33304;52.456;13.328;2024-01-15T13:24:46;2.60;83.50
47576;DHT22;33304;52.456;13.328;2024-01-15T13:27:13;2.60;82.40
47576;DHT22;33304;52.456;13.328;2024-01-15T13:29:40;2.70;81.10
47576;DHT22;33304;52.456;13.328;2024-01-15T13:32:09;2.70;81.70
47576;DHT22;33304;52.456;13.328;2024-01-15T13:34:40;2.70;78.40
47576;DHT22;33304;52.456;13.328;2024-01-15T13:37:07;2.80;76.00
47576;DHT22;33304;52.456;13.328;2024-01-15T13:39:35;2.70;72.70
47576;DHT22;33304;52.456;13.328;2024-01-15T13:42:03;2.70;75.90
47576;DHT22;33304;52.456;13.328;2024-01-15T13:44:30;2.70;71.80
47576;DHT22;33304;52.456;13.328;2024-01-15T13:46:57;2.60;72.40
47576;DHT22;33304;52.456;13.328;2024-01-15T13:49:25;2.70;73.50
47576;DHT22;33304;52.456;13.328;2024-01-15T13:51:52;2.60;72.70
47576;DHT22;33304;52.456;13.328;2024-01-15T13:54:19;2.60;72.90
47576;DHT22;33304;52.456;13.328;2024-01-15T13:56:47;2.60;75.80
47576;DHT22;33304;52.456;13.328;2024-01-15T13:59:14;2.60;73.10
47576;DHT22;33304;52.456;13.328;2024-01-15T14:01:42;2.60;73.70
47576;DHT22;33304;52.456;13.328;2024-01-15T14:04:09;2.60;74.30
47576;DHT22;33304;52.456;13.328;2024-01-15T14:06:37;2.50;75.90
47576;DHT22;33304;52.456;13.328;2024-01-15T14:09:05;2.60;77.80
47576;DHT22;33304;52.456;13.328;2024-01-15T14:11:35;2.60;77.40
47576;DHT22;33304;52.456;13.328;2024-01-15T14:14:02;2.50;79.00
47576;DHT22;33304;52.456;13.328;2024-01-15T14:16:29;2.50;81.10
47576;DHT22;33304;52.456;13.328;2024-01-15T14:18:56;2.50;83.80
47576;DHT22;33304;52.456;13.328;2024-01-15T14:21:23;2.50;80.90
47576;DHT22;33304;52.456;13.328;2024-01-15T14:23:52;2.50;81.30
47576;DHT22;33304;52.456;13.328;2024-01-15T14:26:19;2.50;79.40
47576;DHT22;33304;52.456;13.328;2024-01-15T14:28:46;2.50;79.50
47576;DHT22;33304;52.456;13.328;2024-01-15T14:31:14;2.50;79.70
47576;DHT22;33304;52.456;13.328;2024-01-15T14:33:41;2.50;78.20
47576;DHT22;33304;52.456;13.328;2024-01-15T14:36:08;2.60;78.70
47576;DHT22;33304;52.456;13.328;2024-01-15T14:38:35;2.50;78.40
47576;DHT22;33304;52.456;13.328;2024-01-15T14:41:04;2.40;79.60
47576;DHT22;33304;52.456;13.328;2024-01-15T14:43:31;2.40;83.10
47576;DHT22;33304;52.456;13.328;2024-01-15T14:45:58;2.40;88.60
47576;DHT22;33304;52.456;13.328;2024-01-15T14:48:26;2.40;85.80
47576;DHT22;33304;52.456;13.328;2024-01-15T14:50:53;2.40;81.50
47576;DHT22;33304;52.456;13.328;2024-01-15T14:53:20;2.40;80.60
47576;DHT22;33304;52.456;13.328;2024-01-15T14:55:47;2.40;80.20
47576;DHT22;33304;52.456;13.328;2024-01-15T14:58:15;2.40;80.10
47576;DHT22;33304;52.456;13.328;2024-01-15T15:00:42;2.30;75.60
47576;DHT22;33304;52.456;13.328;2024-01-15T15:03:11;2.30;75.90
47576;DHT22;33304;52.456;13.328;2024-01-15T15:05:39;2.30;73.50
47576;DHT22;33304;52.456;13.328;2024-01-15T15:08:06;2.30;70.30
47576;DHT22;33304;52.456;13.328;2024-01-15T15:10:34;2.40;69.90
47576;DHT22;33304;52.456;13.328;2024-01-15T15:13:02;2.40;70.00
47576;DHT22;33304;52.456;13.328;2024-01-15T15:15:30;2.40;70.40
47576;DHT22;33304;52.456;13.328;2024-01-15T15:17:57;2.30;70.30
47576;DHT22;33304;52.456;13.328;2024-01-15T15:20:24;2.30;72.30
47576;DHT22;33304;52.456;13.328;2024-01-15T15:22:52;2.40;70.50
47576;DHT22;33304;52.456;13.328;2024-01-15T15:25:21;2.40;70.50
47576;DHT22;33304;52.456;13.328;2024-01-15T15:27:49;2.40;69.70
47576;DHT22;33304;52.456;13.328;2024-01-15T15:30:16;2.40;70.40
47576;DHT22;33304;52.456;13.328;2024-01-15T15:32:44;2.40;69.90
47576;DHT22;33304;52.456;13.328;2024-01-15T15:35:11;2.40;72.30